sensor_id;sensor_type;location;lat;lon;timestamp;P1;durP1;ratioP1;P2;durP2;ratioP2
25780;SDS011;13626;48.128;11.628;2023-06-14T00:01:03;4.47;;;3.13;;
25780;SDS011;13626;48.128;11.628;2023-06-14T00:03:32;4.22;;;3.40;;
25780;SDS011;13626;48.128;11.628;2023-06-14T00:05:59;3.92;;;2.85;;
25780;SDS011;13626;48.128;11.628;2023-06-14T00:08:27;4.65;;;2.92;;
25780;SDS011;13626;48.128;11.628;2023-06-14T00:10:54;7.80;;;3.42;;
25780;SDS011;13626;48.128;11.628;2023-06-14T00:13:21;4.15;;;3.22;;
25780;SDS011;13626;48.128;11.628;2023-06-14T00:15:49;7.25;;;3.65;;
25780;SDS011;13626;48.128;11.628;2023-06-14T00:18:21;3.80;;;3.13;;
25780;SDS011;13626;48.128;11.628;2023-06-14T00:20:52;3.63;;;3.17;;
25780;SDS011;13626;48.128;11.628;2023-06-14T00:23:20;5.63;;;3.67;;
25780;SDS011;13626;48.128;11.628;2023-06-14T00:25:47;7.13;;;3.00;;
25780;SDS011;13626;48.128;11.628;2023-06-14T00:28:14;5.78;;;3.20;;
25780;SDS011;13626;48.128;11.628;2023-06-14T00:30:42;4.63;;;3.00;;
25780;SDS011;13626;48.128;11.628;2023-06-14T00:33:13;5.90;;;3.28;;
25780;SDS011;13626;48.128;11.628;2023-06-14T00:35:40;4.78;;;3.60;;
25780;SDS011;13626;48.128;11.628;2023-06-14T00:38:08;4.50;;;3.47;;
25780;SDS011;13626;48.128;11.628;2023-06-14T00:40:35;3.72;;;3.08;;
25780;SDS011;13626;48.128;11.628;2023-06-14T00:43:03;8.45;;;3.38;;
25780;SDS011;13626;48.128;11.628;2023-06-14T00:45:30;4.75;;;3.10;;
25780;SDS011;13626;48.128;11.628;2023-06-14T00:47:57;4.55;;;3.40;;
25780;SDS011;13626;48.128;11.628;2023-06-14T00:50:25;4.63;;;3.30;;
25780;SDS011;13626;48.128;11.628;2023-06-14T00:52:53;6.93;;;3.55;;
25780;SDS011;13626;48.128;11.628;2023-06-14T00:55:20;4.72;;;3.67;;
25780;SDS011;13626;48.128;11.628;2023-06-14T00:57:47;5.00;;;3.33;;
25780;SDS011;13626;48.128;11.628;2023-06-14T01:00:15;5.75;;;3.67;;
25780;SDS011;13626;48.128;11.628;2023-06-14T01:02:43;4.28;;;3.28;;
25780;SDS011;13626;48.128;11.628;2023-06-14T01:05:11;6.70;;;3.60;;
25780;SDS011;13626;48.128;11.628;2023-06-14T01:07:57;6.50;;;3.45;;
25780;SDS011;13626;48.128;11.628;2023-06-14T01:15:26;6.20;;;4.20;;
25780;SDS011;13626;48.128;11.628;2023-06-14T01:17:54;6.95;;;3.53;;
25780;SDS011;13626;48.128;11.628;2023-06-14T01:20:27;6.35;;;3.60;;
25780;SDS011;13626;48.128;11.628;2023-06-14T01:22:55;4.82;;;3.70;;
25780;SDS011;13626;48.128;11.628;2023-06-14T01:25:23;5.30;;;3.97;;
25780;SDS011;13626;48.128;11.628;2023-06-14T01:27:53;6.10;;;3.75;;
25780;SDS011;13626;48.128;11.628;2023-06-14T01:30:21;6.13;;;3.97;;
25780;SDS011;13626;48.128;11.628;2023-06-14T01:32:52;4.93;;;3.88;;
25780;SDS011;13626;48.128;11.628;2023-06-14T01:35:21;6.57;;;3.88;;
25780;SDS011;13626;48.128;11.628;2023-06-14T01:37:49;4.90;;;3.50;;
25780;SDS011;13626;48.128;11.628;2023-06-14T01:40:18;4.63;;;3.50;;
25780;SDS011;13626;48.128;11.628;2023-06-14T01:42:46;4.90;;;3.85;;
25780;SDS011;13626;48.128;11.628;2023-06-14T01:45:14;5.07;;;3.70;;
25780;SDS011;13626;48.128;11.628;2023-06-14T01:47:43;4.40;;;3.70;;
25780;SDS011;13626;48.128;11.628;2023-06-14T01:50:12;5.03;;;4.15;;
25780;SDS011;13626;48.128;11.628;2023-06-14T01:52:40;5.63;;;3.92;;
25780;SDS011;13626;48.128;11.628;2023-06-14T01:55:07;4.43;;;3.78;;
25780;SDS011;13626;48.128;11.628;2023-06-14T01:57:35;6.82;;;4.22;;
25780;SDS011;13626;48.128;11.628;2023-06-14T02:00:03;6.20;;;3.88;;
25780;SDS011;13626;48.128;11.628;2023-06-14T02:02:34;5.57;;;3.65;;
25780;SDS011;13626;48.128;11.628;2023-06-14T02:05:02;4.32;;;3.78;;
25780;SDS011;13626;48.128;11.628;2023-06-14T02:07:29;5.50;;;3.70;;
25780;SDS011;13626;48.128;11.628;2023-06-14T02:09:56;4.75;;;3.83;;
25780;SDS011;13626;48.128;11.628;2023-06-14T02:12:24;5.55;;;3.58;;
25780;SDS011;13626;48.128;11.628;2023-06-14T02:14:51;5.07;;;3.47;;
25780;SDS011;13626;48.128;11.628;2023-06-14T02:17:19;6.45;;;3.80;;
25780;SDS011;13626;48.128;11.628;2023-06-14T02:19:46;5.68;;;4.13;;
25780;SDS011;13626;48.128;11.628;2023-06-14T02:22:14;5.30;;;3.50;;
25780;SDS011;13626;48.128;11.628;2023-06-14T02:24:42;6.47;;;3.85;;
25780;SDS011;13626;48.128;11.628;2023-06-14T02:27:09;6.20;;;4.10;;
25780;SDS011;13626;48.128;11.628;2023-06-14T02:29:36;5.22;;;4.00;;
25780;SDS011;13626;48.128;11.628;2023-06-14T02:32:04;4.55;;;3.58;;
25780;SDS011;13626;48.128;11.628;2023-06-14T02:34:33;4.57;;;3.55;;
25780;SDS011;13626;48.128;11.628;2023-06-14T02:37:01;3.90;;;3.50;;
25780;SDS011;13626;48.128;11.628;2023-06-14T02:39:31;4.60;;;3.42;;
25780;SDS011;13626;48.128;11.628;2023-06-14T02:41:59;5.03;;;3.40;;
25780;SDS011;13626;48.128;11.628;2023-06-14T02:44:26;4.75;;;3.83;;
25780;SDS011;13626;48.128;11.628;2023-06-14T02:46:54;4.30;;;3.50;;
25780;SDS011;13626;48.128;11.628;2023-06-14T02:49:22;5.43;;;3.90;;
25780;SDS011;13626;48.128;11.628;2023-06-14T02:51:49;6.40;;;4.05;;
25780;SDS011;13626;48.128;11.628;2023-06-14T02:54:17;9.43;;;3.97;;
25780;SDS011;13626;48.128;11.628;2023-06-14T02:56:44;6.28;;;3.95;;
25780;SDS011;13626;48.128;11.628;2023-06-14T02:59:11;5.43;;;3.75;;
25780;SDS011;13626;48.128;11.628;2023-06-14T03:01:40;5.50;;;3.80;;
25780;SDS011;13626;48.128;11.628;2023-06-14T03:04:08;5.47;;;4.10;;
25780;SDS011;13626;48.128;11.628;2023-06-14T03:06:35;5.40;;;3.50;;
25780;SDS011;13626;48.128;11.628;2023-06-14T03:09:03;6.93;;;4.00;;
25780;SDS011;13626;48.128;11.628;2023-06-14T03:11:31;6.75;;;4.32;;
25780;SDS011;13626;48.128;11.628;2023-06-14T03:13:59;7.93;;;3.90;;
25780;SDS011;13626;48.128;11.628;2023-06-14T03:16:27;5.53;;;3.97;;
25780;SDS011;13626;48.128;11.628;2023-06-14T03:18:56;5.55;;;3.72;;
25780;SDS011;13626;48.128;11.628;2023-06-14T03:21:24;5.45;;;3.92;;
25780;SDS011;13626;48.128;11.628;2023-06-14T03:23:52;5.72;;;3.92;;
25780;SDS011;13626;48.128;11.628;2023-06-14T03:26:19;6.25;;;3.95;;
25780;SDS011;13626;48.128;11.628;2023-06-14T03:28:47;6.65;;;4.15;;
25780;SDS011;13626;48.128;11.628;2023-06-14T03:31:17;5.05;;;3.60;;
25780;SDS011;13626;48.128;11.628;2023-06-14T03:33:45;6.93;;;3.97;;
25780;SDS011;13626;48.128;11.628;2023-06-14T03:36:13;4.80;;;3.70;;
25780;SDS011;13626;48.128;11.628;2023-06-14T03:38:40;5.63;;;3.95;;
25780;SDS011;13626;48.128;11.628;2023-06-14T03:41:07;4.28;;;3.45;;
25780;SDS011;13626;48.128;11.628;2023-06-14T03:43:34;5.38;;;3.85;;
25780;SDS011;13626;48.128;11.628;2023-06-14T03:46:01;8.57;;;4.38;;
25780;SDS011;13626;48.128;11.628;2023-06-14T03:48:29;6.00;;;3.88;;
25780;SDS011;13626;48.128;11.628;2023-06-14T03:50:56;7.00;;;4.20;;
25780;SDS011;13626;48.128;11.628;2023-06-14T03:53:26;6.53;;;3.75;;
25780;SDS011;13626;48.128;11.628;2023-06-14T03:55:55;4.20;;;3.53;;
25780;SDS011;13626;48.128;11.628;2023-06-14T03:58:23;4.72;;;3.17;;
25780;SDS011;13626;48.128;11.628;2023-06-14T04:00:50;6.10;;;4.47;;
25780;SDS011;13626;48.128;11.628;2023-06-14T04:03:17;6.88;;;4.10;;
25780;SDS011;13626;48.128;11.628;2023-06-14T04:05:46;5.03;;;3.90;;
25780;SDS011;13626;48.128;11.628;2023-06-14T04:08:15;6.10;;;4.20;;
25780;SDS011;13626;48.128;11.628;2023-06-14T04:10:45;4.88;;;4.00;;
25780;SDS011;13626;48.128;11.628;2023-06-14T04:13:13;5.93;;;4.35;;
25780;SDS011;13626;48.128;11.628;2023-06-14T04:15:40;6.28;;;4.20;;
25780;SDS011;13626;48.128;11.628;2023-06-14T04:18:12;5.13;;;3.67;;
25780;SDS011;13626;48.128;11.628;2023-06-14T04:20:39;7.28;;;4.03;;
25780;SDS011;13626;48.128;11.628;2023-06-14T04:25:40;6.30;;;3.92;;
25780;SDS011;13626;48.128;11.628;2023-06-14T04:28:11;5.30;;;4.13;;
25780;SDS011;13626;48.128;11.628;2023-06-14T04:30:42;7.82;;;4.57;;
25780;SDS011;13626;48.128;11.628;2023-06-14T04:33:09;7.82;;;4.75;;
25780;SDS011;13626;48.128;11.628;2023-06-14T04:35:37;7.38;;;4.85;;
25780;SDS011;13626;48.128;11.628;2023-06-14T04:38:05;8.75;;;4.43;;
25780;SDS011;13626;48.128;11.628;2023-06-14T04:40:35;5.55;;;4.18;;
25780;SDS011;13626;48.128;11.628;2023-06-14T04:43:09;6.65;;;5.15;;
25780;SDS011;13626;48.128;11.628;2023-06-14T04:45:41;7.68;;;4.55;;
25780;SDS011;13626;48.128;11.628;2023-06-14T04:48:12;8.48;;;4.05;;
25780;SDS011;13626;48.128;11.628;2023-06-14T04:50:40;7.22;;;4.38;;
25780;SDS011;13626;48.128;11.628;2023-06-14T04:53:09;6.90;;;3.85;;
25780;SDS011;13626;48.128;11.628;2023-06-14T04:55:37;7.60;;;4.45;;
25780;SDS011;13626;48.128;11.628;2023-06-14T04:58:04;6.28;;;4.10;;
25780;SDS011;13626;48.128;11.628;2023-06-14T05:00:32;6.72;;;4.53;;
25780;SDS011;13626;48.128;11.628;2023-06-14T05:02:59;7.03;;;4.32;;
25780;SDS011;13626;48.128;11.628;2023-06-14T05:05:27;11.52;;;4.78;;
25780;SDS011;13626;48.128;11.628;2023-06-14T05:07:54;5.85;;;4.03;;
25780;SDS011;13626;48.128;11.628;2023-06-14T05:10:22;8.35;;;4.43;;
25780;SDS011;13626;48.128;11.628;2023-06-14T05:12:49;8.32;;;4.75;;
25780;SDS011;13626;48.128;11.628;2023-06-14T05:15:18;6.05;;;4.00;;
25780;SDS011;13626;48.128;11.628;2023-06-14T05:17:46;6.18;;;4.00;;
25780;SDS011;13626;48.128;11.628;2023-06-14T05:22:49;4.93;;;3.53;;
25780;SDS011;13626;48.128;11.628;2023-06-14T05:25:18;5.78;;;3.55;;
25780;SDS011;13626;48.128;11.628;2023-06-14T05:27:46;4.25;;;3.33;;
25780;SDS011;13626;48.128;11.628;2023-06-14T05:30:14;5.72;;;3.92;;
25780;SDS011;13626;48.128;11.628;2023-06-14T05:32:42;4.88;;;3.70;;
25780;SDS011;13626;48.128;11.628;2023-06-14T05:35:09;5.55;;;3.28;;
25780;SDS011;13626;48.128;11.628;2023-06-14T05:37:37;5.35;;;3.45;;
25780;SDS011;13626;48.128;11.628;2023-06-14T05:40:04;7.53;;;3.53;;
25780;SDS011;13626;48.128;11.628;2023-06-14T05:42:32;8.77;;;3.63;;
25780;SDS011;13626;48.128;11.628;2023-06-14T05:45:00;7.78;;;3.70;;
25780;SDS011;13626;48.128;11.628;2023-06-14T05:47:27;6.03;;;3.75;;
25780;SDS011;13626;48.128;11.628;2023-06-14T05:49:54;5.35;;;3.88;;
25780;SDS011;13626;48.128;11.628;2023-06-14T05:52:22;5.60;;;3.08;;
25780;SDS011;13626;48.128;11.628;2023-06-14T05:54:49;8.35;;;3.80;;
25780;SDS011;13626;48.128;11.628;2023-06-14T05:57:16;4.72;;;3.22;;
25780;SDS011;13626;48.128;11.628;2023-06-14T05:59:44;4.93;;;3.92;;
25780;SDS011;13626;48.128;11.628;2023-06-14T06:02:11;4.40;;;3.65;;
25780;SDS011;13626;48.128;11.628;2023-06-14T06:04:38;8.10;;;3.97;;
25780;SDS011;13626;48.128;11.628;2023-06-14T06:07:05;5.40;;;3.83;;
25780;SDS011;13626;48.128;11.628;2023-06-14T06:09:33;8.10;;;4.28;;
25780;SDS011;13626;48.128;11.628;2023-06-14T06:12:00;6.55;;;3.80;;
25780;SDS011;13626;48.128;11.628;2023-06-14T06:14:28;6.93;;;3.85;;
25780;SDS011;13626;48.128;11.628;2023-06-14T06:16:55;7.75;;;4.40;;
25780;SDS011;13626;48.128;11.628;2023-06-14T06:19:22;10.95;;;3.50;;
25780;SDS011;13626;48.128;11.628;2023-06-14T06:21:49;7.00;;;4.28;;
25780;SDS011;13626;48.128;11.628;2023-06-14T06:24:17;6.30;;;3.70;;
25780;SDS011;13626;48.128;11.628;2023-06-14T06:26:44;6.05;;;3.53;;
25780;SDS011;13626;48.128;11.628;2023-06-14T06:29:11;6.60;;;3.78;;
25780;SDS011;13626;48.128;11.628;2023-06-14T06:31:39;6.25;;;3.90;;
25780;SDS011;13626;48.128;11.628;2023-06-14T06:34:06;6.07;;;3.70;;
25780;SDS011;13626;48.128;11.628;2023-06-14T06:36:33;7.13;;;3.38;;
25780;SDS011;13626;48.128;11.628;2023-06-14T06:39:01;6.43;;;3.85;;
25780;SDS011;13626;48.128;11.628;2023-06-14T06:41:38;5.03;;;3.80;;
25780;SDS011;13626;48.128;11.628;2023-06-14T06:44:06;5.60;;;3.85;;
25780;SDS011;13626;48.128;11.628;2023-06-14T06:46:34;6.53;;;3.80;;
25780;SDS011;13626;48.128;11.628;2023-06-14T06:49:01;6.53;;;3.83;;
25780;SDS011;13626;48.128;11.628;2023-06-14T06:51:29;4.78;;;4.00;;
25780;SDS011;13626;48.128;11.628;2023-06-14T06:53:56;4.47;;;3.45;;
25780;SDS011;13626;48.128;11.628;2023-06-14T06:56:23;4.00;;;3.60;;
25780;SDS011;13626;48.128;11.628;2023-06-14T06:58:50;5.93;;;4.07;;
25780;SDS011;13626;48.128;11.628;2023-06-14T07:01:18;4.30;;;3.90;;
25780;SDS011;13626;48.128;11.628;2023-06-14T07:03:46;4.90;;;3.30;;
25780;SDS011;13626;48.128;11.628;2023-06-14T07:06:13;8.60;;;3.95;;
25780;SDS011;13626;48.128;11.628;2023-06-14T07:08:44;4.20;;;3.30;;
25780;SDS011;13626;48.128;11.628;2023-06-14T07:11:14;5.18;;;3.83;;
25780;SDS011;13626;48.128;11.628;2023-06-14T07:13:41;6.28;;;3.60;;
25780;SDS011;13626;48.128;11.628;2023-06-14T07:16:09;6.28;;;3.33;;
25780;SDS011;13626;48.128;11.628;2023-06-14T07:18:36;3.75;;;3.35;;
25780;SDS011;13626;48.128;11.628;2023-06-14T07:21:04;6.22;;;3.63;;
25780;SDS011;13626;48.128;11.628;2023-06-14T07:23:31;4.15;;;3.13;;
25780;SDS011;13626;48.128;11.628;2023-06-14T07:25:59;8.55;;;3.65;;
25780;SDS011;13626;48.128;11.628;2023-06-14T07:28:26;5.97;;;3.55;;
25780;SDS011;13626;48.128;11.628;2023-06-14T07:30:53;4.15;;;3.22;;
25780;SDS011;13626;48.128;11.628;2023-06-14T07:33:21;4.20;;;3.00;;
25780;SDS011;13626;48.128;11.628;2023-06-14T07:35:48;3.63;;;3.10;;
25780;SDS011;13626;48.128;11.628;2023-06-14T07:38:16;4.15;;;2.85;;
25780;SDS011;13626;48.128;11.628;2023-06-14T07:40:43;3.45;;;3.15;;
25780;SDS011;13626;48.128;11.628;2023-06-14T07:43:10;4.65;;;3.33;;
25780;SDS011;13626;48.128;11.628;2023-06-14T07:45:38;3.75;;;3.17;;
25780;SDS011;13626;48.128;11.628;2023-06-14T07:48:13;6.05;;;2.83;;
25780;SDS011;13626;48.128;11.628;2023-06-14T07:50:42;3.90;;;3.17;;
25780;SDS011;13626;48.128;11.628;2023-06-14T07:53:09;3.08;;;2.78;;
25780;SDS011;13626;48.128;11.628;2023-06-14T07:55:36;5.75;;;3.15;;
25780;SDS011;13626;48.128;11.628;2023-06-14T07:58:18;3.08;;;2.78;;
25780;SDS011;13626;48.128;11.628;2023-06-14T08:00:46;3.25;;;2.60;;
25780;SDS011;13626;48.128;11.628;2023-06-14T08:03:13;4.15;;;2.92;;
25780;SDS011;13626;48.128;11.628;2023-06-14T08:05:40;3.35;;;2.65;;
25780;SDS011;13626;48.128;11.628;2023-06-14T08:08:08;3.58;;;2.95;;
25780;SDS011;13626;48.128;11.628;2023-06-14T08:10:35;4.57;;;2.75;;
25780;SDS011;13626;48.128;11.628;2023-06-14T08:13:02;4.88;;;2.83;;
25780;SDS011;13626;48.128;11.628;2023-06-14T08:15:29;3.63;;;2.60;;
25780;SDS011;13626;48.128;11.628;2023-06-14T08:17:57;2.88;;;2.65;;
25780;SDS011;13626;48.128;11.628;2023-06-14T08:20:26;5.80;;;2.90;;
25780;SDS011;13626;48.128;11.628;2023-06-14T08:22:54;3.00;;;2.70;;
25780;SDS011;13626;48.128;11.628;2023-06-14T08:25:23;4.63;;;2.50;;
25780;SDS011;13626;48.128;11.628;2023-06-14T08:27:50;3.50;;;2.60;;
25780;SDS011;13626;48.128;11.628;2023-06-14T08:30:17;3.38;;;2.60;;
25780;SDS011;13626;48.128;11.628;2023-06-14T08:32:45;3.97;;;2.55;;
25780;SDS011;13626;48.128;11.628;2023-06-14T08:35:18;3.03;;;2.53;;
25780;SDS011;13626;48.128;11.628;2023-06-14T08:37:46;3.63;;;3.03;;
25780;SDS011;13626;48.128;11.628;2023-06-14T08:40:20;16.92;;;4.45;;
25780;SDS011;13626;48.128;11.628;2023-06-14T08:42:51;5.65;;;3.00;;
25780;SDS011;13626;48.128;11.628;2023-06-14T08:45:19;3.88;;;2.70;;
25780;SDS011;13626;48.128;11.628;2023-06-14T08:47:51;2.90;;;2.65;;
25780;SDS011;13626;48.128;11.628;2023-06-14T08:50:19;4.50;;;2.97;;
25780;SDS011;13626;48.128;11.628;2023-06-14T08:52:54;4.38;;;3.20;;
25780;SDS011;13626;48.128;11.628;2023-06-14T08:55:23;4.18;;;2.90;;
25780;SDS011;13626;48.128;11.628;2023-06-14T08:57:57;4.82;;;3.10;;
25780;SDS011;13626;48.128;11.628;2023-06-14T09:00:26;4.82;;;3.28;;
25780;SDS011;13626;48.128;11.628;2023-06-14T09:02:55;5.63;;;3.45;;
25780;SDS011;13626;48.128;11.628;2023-06-14T09:05:26;3.53;;;3.22;;
25780;SDS011;13626;48.128;11.628;2023-06-14T09:07:54;4.22;;;3.13;;
25780;SDS011;13626;48.128;11.628;2023-06-14T09:10:26;6.20;;;3.25;;
25780;SDS011;13626;48.128;11.628;2023-06-14T09:12:55;3.42;;;3.13;;
25780;SDS011;13626;48.128;11.628;2023-06-14T09:15:22;7.93;;;3.70;;
25780;SDS011;13626;48.128;11.628;2023-06-14T09:17:50;6.65;;;3.70;;
25780;SDS011;13626;48.128;11.628;2023-06-14T09:20:17;4.35;;;3.22;;
25780;SDS011;13626;48.128;11.628;2023-06-14T09:22:46;3.38;;;3.08;;
25780;SDS011;13626;48.128;11.628;2023-06-14T09:25:13;4.53;;;3.28;;
25780;SDS011;13626;48.128;11.628;2023-06-14T09:28:06;4.20;;;2.95;;
25780;SDS011;13626;48.128;11.628;2023-06-14T09:30:33;5.00;;;3.60;;
25780;SDS011;13626;48.128;11.628;2023-06-14T09:33:00;3.95;;;3.40;;
25780;SDS011;13626;48.128;11.628;2023-06-14T09:35:27;4.32;;;3.20;;
25780;SDS011;13626;48.128;11.628;2023-06-14T09:37:57;5.68;;;3.33;;
25780;SDS011;13626;48.128;11.628;2023-06-14T09:40:24;4.13;;;3.42;;
25780;SDS011;13626;48.128;11.628;2023-06-14T09:42:52;5.07;;;3.33;;
25780;SDS011;13626;48.128;11.628;2023-06-14T09:45:20;5.68;;;3.70;;
25780;SDS011;13626;48.128;11.628;2023-06-14T09:47:49;5.75;;;3.33;;
25780;SDS011;13626;48.128;11.628;2023-06-14T09:50:32;6.20;;;3.40;;
25780;SDS011;13626;48.128;11.628;2023-06-14T09:53:06;5.32;;;3.33;;
25780;SDS011;13626;48.128;11.628;2023-06-14T09:55:36;5.40;;;3.50;;
25780;SDS011;13626;48.128;11.628;2023-06-14T09:58:05;4.90;;;3.70;;
25780;SDS011;13626;48.128;11.628;2023-06-14T10:00:34;3.67;;;3.10;;
25780;SDS011;13626;48.128;11.628;2023-06-14T10:03:12;3.42;;;3.13;;
25780;SDS011;13626;48.128;11.628;2023-06-14T10:05:43;4.03;;;3.22;;
25780;SDS011;13626;48.128;11.628;2023-06-14T10:08:15;7.72;;;3.42;;
25780;SDS011;13626;48.128;11.628;2023-06-14T10:10:44;4.55;;;3.25;;
25780;SDS011;13626;48.128;11.628;2023-06-14T10:13:12;3.80;;;3.28;;
25780;SDS011;13626;48.128;11.628;2023-06-14T10:15:45;9.05;;;4.15;;
25780;SDS011;13626;48.128;11.628;2023-06-14T10:23:21;4.53;;;3.40;;
25780;SDS011;13626;48.128;11.628;2023-06-14T10:25:49;5.68;;;3.50;;
25780;SDS011;13626;48.128;11.628;2023-06-14T10:28:18;4.53;;;3.42;;
25780;SDS011;13626;48.128;11.628;2023-06-14T10:31:04;5.63;;;3.42;;
25780;SDS011;13626;48.128;11.628;2023-06-14T10:33:33;4.10;;;3.23;;
25780;SDS011;13626;48.128;11.628;2023-06-14T10:36:10;5.70;;;3.55;;
25780;SDS011;13626;48.128;11.628;2023-06-14T10:38:59;8.65;;;3.55;;
25780;SDS011;13626;48.128;11.628;2023-06-14T10:41:27;5.43;;;3.97;;
25780;SDS011;13626;48.128;11.628;2023-06-14T10:44:56;5.00;;;3.63;;
25780;SDS011;13626;48.128;11.628;2023-06-14T10:46:52;8.25;;;3.65;;
25780;SDS011;13626;48.128;11.628;2023-06-14T10:49:20;8.10;;;3.85;;
25780;SDS011;13626;48.128;11.628;2023-06-14T10:52:07;7.80;;;3.85;;
25780;SDS011;13626;48.128;11.628;2023-06-14T10:54:55;5.77;;;4.00;;
25780;SDS011;13626;48.128;11.628;2023-06-14T10:57:24;5.75;;;4.10;;
25780;SDS011;13626;48.128;11.628;2023-06-14T10:59:51;5.28;;;3.28;;
25780;SDS011;13626;48.128;11.628;2023-06-14T11:04:49;8.57;;;3.80;;
25780;SDS011;13626;48.128;11.628;2023-06-14T11:10:15;5.95;;;3.50;;
25780;SDS011;13626;48.128;11.628;2023-06-14T11:12:47;7.45;;;3.92;;
25780;SDS011;13626;48.128;11.628;2023-06-14T11:15:15;5.20;;;3.88;;
25780;SDS011;13626;48.128;11.628;2023-06-14T11:17:52;6.55;;;3.30;;
25780;SDS011;13626;48.128;11.628;2023-06-14T11:20:19;5.05;;;3.38;;
25780;SDS011;13626;48.128;11.628;2023-06-14T11:22:49;5.53;;;3.50;;
25780;SDS011;13626;48.128;11.628;2023-06-14T11:25:17;5.65;;;3.67;;
25780;SDS011;13626;48.128;11.628;2023-06-14T11:27:45;6.50;;;3.70;;
25780;SDS011;13626;48.128;11.628;2023-06-14T11:30:13;5.00;;;3.63;;
25780;SDS011;13626;48.128;11.628;2023-06-14T11:32:41;4.82;;;3.63;;
25780;SDS011;13626;48.128;11.628;2023-06-14T11:35:08;5.32;;;4.22;;
25780;SDS011;13626;48.128;11.628;2023-06-14T11:37:39;8.57;;;3.60;;
25780;SDS011;13626;48.128;11.628;2023-06-14T11:40:13;4.45;;;3.58;;
25780;SDS011;13626;48.128;11.628;2023-06-14T11:42:40;7.13;;;3.67;;
25780;SDS011;13626;48.128;11.628;2023-06-14T11:45:08;5.03;;;4.00;;
25780;SDS011;13626;48.128;11.628;2023-06-14T11:47:37;5.55;;;3.60;;
25780;SDS011;13626;48.128;11.628;2023-06-14T11:50:08;11.98;;;3.92;;
25780;SDS011;13626;48.128;11.628;2023-06-14T11:52:36;4.97;;;3.58;;
25780;SDS011;13626;48.128;11.628;2023-06-14T11:55:04;3.35;;;3.05;;
25780;SDS011;13626;48.128;11.628;2023-06-14T11:57:36;21.27;;;4.43;;
25780;SDS011;13626;48.128;11.628;2023-06-14T12:00:08;5.10;;;3.80;;
25780;SDS011;13626;48.128;11.628;2023-06-14T12:02:38;4.22;;;3.72;;
25780;SDS011;13626;48.128;11.628;2023-06-14T12:05:08;5.20;;;3.53;;
25780;SDS011;13626;48.128;11.628;2023-06-14T12:07:36;7.18;;;3.70;;
25780;SDS011;13626;48.128;11.628;2023-06-14T12:10:09;6.65;;;3.83;;
25780;SDS011;13626;48.128;11.628;2023-06-14T12:12:39;5.18;;;3.60;;
25780;SDS011;13626;48.128;11.628;2023-06-14T12:15:07;4.05;;;3.65;;
25780;SDS011;13626;48.128;11.628;2023-06-14T12:17:35;5.47;;;3.95;;
25780;SDS011;13626;48.128;11.628;2023-06-14T12:20:13;7.40;;;3.75;;
25780;SDS011;13626;48.128;11.628;2023-06-14T12:22:55;4.20;;;3.80;;
25780;SDS011;13626;48.128;11.628;2023-06-14T12:25:23;5.25;;;3.85;;
25780;SDS011;13626;48.128;11.628;2023-06-14T12:27:54;4.57;;;3.45;;
25780;SDS011;13626;48.128;11.628;2023-06-14T12:30:21;5.75;;;3.70;;
25780;SDS011;13626;48.128;11.628;2023-06-14T12:32:49;4.00;;;3.35;;
25780;SDS011;13626;48.128;11.628;2023-06-14T12:35:18;5.95;;;3.63;;
25780;SDS011;13626;48.128;11.628;2023-06-14T12:37:45;3.72;;;3.42;;
25780;SDS011;13626;48.128;11.628;2023-06-14T12:40:13;4.45;;;3.53;;
25780;SDS011;13626;48.128;11.628;2023-06-14T12:42:44;5.53;;;3.80;;
25780;SDS011;13626;48.128;11.628;2023-06-14T12:45:13;4.68;;;3.72;;
25780;SDS011;13626;48.128;11.628;2023-06-14T12:47:42;4.60;;;4.05;;
25780;SDS011;13626;48.128;11.628;2023-06-14T12:50:09;7.43;;;3.63;;
25780;SDS011;13626;48.128;11.628;2023-06-14T12:52:37;9.02;;;4.18;;
25780;SDS011;13626;48.128;11.628;2023-06-14T12:55:04;7.32;;;3.33;;
25780;SDS011;13626;48.128;11.628;2023-06-14T12:57:32;4.75;;;3.53;;
25780;SDS011;13626;48.128;11.628;2023-06-14T13:00:03;3.97;;;3.55;;
25780;SDS011;13626;48.128;11.628;2023-06-14T13:02:32;5.07;;;3.40;;
25780;SDS011;13626;48.128;11.628;2023-06-14T13:05:00;5.60;;;3.25;;
25780;SDS011;13626;48.128;11.628;2023-06-14T13:07:30;4.15;;;3.50;;
25780;SDS011;13626;48.128;11.628;2023-06-14T13:09:57;4.00;;;3.58;;
25780;SDS011;13626;48.128;11.628;2023-06-14T13:12:24;5.25;;;3.70;;
25780;SDS011;13626;48.128;11.628;2023-06-14T13:14:51;4.72;;;3.70;;
25780;SDS011;13626;48.128;11.628;2023-06-14T13:17:20;6.25;;;3.42;;
25780;SDS011;13626;48.128;11.628;2023-06-14T13:19:48;4.70;;;3.38;;
25780;SDS011;13626;48.128;11.628;2023-06-14T13:22:16;5.93;;;3.63;;
25780;SDS011;13626;48.128;11.628;2023-06-14T13:24:43;4.38;;;3.63;;
25780;SDS011;13626;48.128;11.628;2023-06-14T13:27:10;4.57;;;3.42;;
25780;SDS011;13626;48.128;11.628;2023-06-14T13:29:40;6.18;;;3.63;;
25780;SDS011;13626;48.128;11.628;2023-06-14T13:32:07;6.10;;;3.60;;
25780;SDS011;13626;48.128;11.628;2023-06-14T13:34:35;6.78;;;3.90;;
25780;SDS011;13626;48.128;11.628;2023-06-14T13:37:02;3.58;;;3.10;;
25780;SDS011;13626;48.128;11.628;2023-06-14T13:39:29;6.43;;;4.10;;
25780;SDS011;13626;48.128;11.628;2023-06-14T13:41:57;3.70;;;3.30;;
25780;SDS011;13626;48.128;11.628;2023-06-14T13:44:24;4.47;;;3.90;;
25780;SDS011;13626;48.128;11.628;2023-06-14T13:46:51;5.60;;;3.80;;
25780;SDS011;13626;48.128;11.628;2023-06-14T13:49:19;5.07;;;3.40;;
25780;SDS011;13626;48.128;11.628;2023-06-14T13:51:46;7.75;;;3.45;;
25780;SDS011;13626;48.128;11.628;2023-06-14T13:54:19;5.40;;;4.03;;
25780;SDS011;13626;48.128;11.628;2023-06-14T13:56:47;5.80;;;4.28;;
25780;SDS011;13626;48.128;11.628;2023-06-14T13:59:15;8.07;;;3.95;;
25780;SDS011;13626;48.128;11.628;2023-06-14T14:01:42;5.22;;;3.50;;
25780;SDS011;13626;48.128;11.628;2023-06-14T14:04:10;6.25;;;3.45;;
25780;SDS011;13626;48.128;11.628;2023-06-14T14:06:37;6.32;;;3.60;;
25780;SDS011;13626;48.128;11.628;2023-06-14T14:09:05;3.50;;;3.20;;
25780;SDS011;13626;48.128;11.628;2023-06-14T14:11:32;8.07;;;3.42;;
25780;SDS011;13626;48.128;11.628;2023-06-14T14:13:59;3.97;;;3.55;;
25780;SDS011;13626;48.128;11.628;2023-06-14T14:16:28;3.67;;;3.28;;
25780;SDS011;13626;48.128;11.628;2023-06-14T14:18:57;5.00;;;3.42;;
25780;SDS011;13626;48.128;11.628;2023-06-14T14:21:24;5.75;;;3.70;;
25780;SDS011;13626;48.128;11.628;2023-06-14T14:23:51;4.57;;;3.30;;
25780;SDS011;13626;48.128;11.628;2023-06-14T14:26:19;3.45;;;3.15;;
25780;SDS011;13626;48.128;11.628;2023-06-14T14:28:47;5.80;;;3.58;;
25780;SDS011;13626;48.128;11.628;2023-06-14T14:31:14;4.13;;;3.38;;
25780;SDS011;13626;48.128;11.628;2023-06-14T14:33:42;5.10;;;3.30;;
25780;SDS011;13626;48.128;11.628;2023-06-14T14:36:09;3.95;;;3.20;;
25780;SDS011;13626;48.128;11.628;2023-06-14T14:38:37;4.10;;;3.40;;
25780;SDS011;13626;48.128;11.628;2023-06-14T14:41:04;4.47;;;3.50;;
25780;SDS011;13626;48.128;11.628;2023-06-14T14:43:31;4.93;;;3.38;;
25780;SDS011;13626;48.128;11.628;2023-06-14T14:45:58;6.75;;;3.63;;
25780;SDS011;13626;48.128;11.628;2023-06-14T14:48:26;3.58;;;3.28;;
25780;SDS011;13626;48.128;11.628;2023-06-14T14:50:53;4.18;;;3.65;;
25780;SDS011;13626;48.128;11.628;2023-06-14T14:53:21;7.50;;;3.67;;
25780;SDS011;13626;48.128;11.628;2023-06-14T14:55:48;4.28;;;3.65;;
25780;SDS011;13626;48.128;11.628;2023-06-14T14:58:15;3.75;;;3.35;;
25780;SDS011;13626;48.128;11.628;2023-06-14T15:00:46;3.72;;;3.40;;
25780;SDS011;13626;48.128;11.628;2023-06-14T15:03:14;3.97;;;3.58;;